TimeEDT,TemperatureF,Dew PointF,Humidity,Sea Level PressureIn,VisibilityMPH,Wind Direction,Wind SpeedMPH,Gust SpeedMPH,PrecipitationIn,Events,Conditions,WindDirDegrees,DateUTC
12:15 AM,45.7,40.6,83,29.97,10.0,SW,4.6,-,N/A,,Clear,230,2013-10-18 04:15:00
12:35 AM,45.0,40.3,84,29.97,10.0,SW,4.6,-,N/A,,Clear,220,2013-10-18 04:35:00
12:55 AM,44.8,40.1,84,29.97,10.0,SW,5.8,-,N/A,,Clear,220,2013-10-18 04:55:00
1:15 AM,44.6,40.1,84,29.96,10.0,SW,3.5,-,N/A,,Clear,220,2013-10-18 05:15:00
1:35 AM,44.4,40.1,85,29.96,10.0,SW,5.8,-,N/A,,Clear,220,2013-10-18 05:35:00
1:55 AM,43.9,39.9,86,29.97,10.0,SSW,5.8,-,N/A,,Clear,210,2013-10-18 05:55:00
2:15 AM,43.9,39.9,86,29.98,10.0,SSW,5.8,-,N/A,,Clear,210,2013-10-18 06:15:00
2:35 AM,43.5,39.6,86,29.98,10.0,SSW,4.6,-,N/A,,Clear,200,2013-10-18 06:35:00
2:55 AM,43.2,39.2,86,29.98,10.0,SSW,4.6,-,N/A,,Clear,200,2013-10-18 06:55:00
3:15 AM,42.8,39.2,87,29.98,10.0,South,5.8,-,N/A,,Clear,190,2013-10-18 07:15:00
3:35 AM,42.8,39.2,87,29.97,7.0,SSW,5.8,-,N/A,,Clear,200,2013-10-18 07:35:00
3:55 AM,42.8,39.2,87,29.97,10.0,SSW,5.8,-,N/A,,Clear,210,2013-10-18 07:55:00
4:15 AM,43.0,39.4,87,29.97,10.0,South,5.8,-,N/A,,Clear,190,2013-10-18 08:15:00
4:35 AM,42.8,39.2,87,29.97,7.0,SSW,5.8,-,N/A,,Clear,200,2013-10-18 08:35:00
4:55 AM,42.6,39.0,87,29.98,7.0,SSW,4.6,-,N/A,,Clear,210,2013-10-18 08:55:00
5:15 AM,42.6,39.0,87,29.98,7.0,SSW,5.8,-,N/A,,Clear,200,2013-10-18 09:15:00
5:35 AM,42.6,39.0,87,29.98,7.0,South,5.8,-,N/A,,Clear,190,2013-10-18 09:35:00
5:55 AM,42.1,38.5,87,29.99,5.0,South,4.6,-,N/A,,Clear,190,2013-10-18 09:55:00
6:15 AM,41.7,38.3,88,29.99,5.0,South,5.8,-,N/A,,Clear,190,2013-10-18 10:15:00
6:35 AM,42.6,39.0,87,29.99,5.0,SSW,5.8,-,N/A,,Clear,200,2013-10-18 10:35:00
6:55 AM,42.8,39.2,87,29.99,5.0,SSW,6.9,-,N/A,,Clear,200,2013-10-18 10:55:00
7:15 AM,42.6,39.2,88,30.00,5.0,South,6.9,-,N/A,,Clear,190,2013-10-18 11:15:00
7:35 AM,42.3,38.8,88,30.00,4.0,South,5.8,-,N/A,,Clear,190,2013-10-18 11:35:00
7:55 AM,42.1,38.7,88,30.01,4.0,South,5.8,-,N/A,,Clear,190,2013-10-18 11:55:00
8:15 AM,42.4,39.0,88,30.01,4.0,South,5.8,-,N/A,,Clear,190,2013-10-18 12:15:00
8:35 AM,43.3,39.9,88,30.01,5.0,South,5.8,-,N/A,,Clear,190,2013-10-18 12:35:00
8:55 AM,44.8,41.2,87,30.02,5.0,SSW,5.8,-,N/A,,Clear,200,2013-10-18 12:55:00
9:15 AM,46.4,42.1,85,30.03,7.0,SSW,8.1,-,N/A,,Clear,200,2013-10-18 13:15:00
9:35 AM,48.0,42.8,82,30.04,10.0,SSW,9.2,-,N/A,,Clear,210,2013-10-18 13:35:00
9:55 AM,49.3,43.0,79,30.04,10.0,SSW,10.4,-,N/A,,Clear,210,2013-10-18 13:55:00
10:15 AM,50.9,43.9,77,30.04,10.0,SSW,10.4,-,N/A,,Clear,210,2013-10-18 14:15:00
10:35 AM,52.9,44.8,74,30.04,10.0,SSW,8.1,-,N/A,,Clear,210,2013-10-18 14:35:00
10:55 AM,55.2,44.6,67,30.04,10.0,SW,11.5,-,N/A,,Clear,220,2013-10-18 14:55:00
11:15 AM,57.2,44.4,62,30.04,10.0,SW,12.7,17.3,N/A,,Clear,220,2013-10-18 15:15:00
11:35 AM,58.8,44.1,58,30.03,10.0,SW,11.5,-,N/A,,Clear,230,2013-10-18 15:35:00
11:55 AM,60.1,43.7,55,30.03,10.0,SW,12.7,19.6,N/A,,Clear,220,2013-10-18 15:55:00
12:15 PM,60.6,43.7,54,30.03,10.0,SW,11.5,17.3,N/A,,Scattered Clouds,230,2013-10-18 16:15:00
12:35 PM,61.9,43.5,51,30.02,10.0,SW,10.4,17.3,N/A,,Scattered Clouds,220,2013-10-18 16:35:00
12:55 PM,62.8,42.6,48,30.02,10.0,WSW,13.8,20.7,N/A,,Scattered Clouds,250,2013-10-18 16:55:00
1:15 PM,63.1,41.0,44,30.01,10.0,WSW,13.8,18.4,N/A,,Scattered Clouds,240,2013-10-18 17:15:00
1:35 PM,62.6,40.3,44,30.00,10.0,WSW,12.7,20.7,N/A,,Scattered Clouds,240,2013-10-18 17:35:00
1:55 PM,64.2,38.8,39,29.99,10.0,WSW,15.0,20.7,N/A,,Scattered Clouds,240,2013-10-18 17:55:00
2:15 PM,64.0,38.5,39,29.98,10.0,WSW,11.5,20.7,N/A,,Mostly Cloudy,240,2013-10-18 18:15:00
2:35 PM,65.1,38.5,37,29.98,10.0,WSW,10.4,16.1,N/A,,Mostly Cloudy,240,2013-10-18 18:35:00
2:55 PM,64.8,37.6,37,29.97,10.0,SSW,12.7,-,N/A,,Mostly Cloudy,200,2013-10-18 18:55:00
3:15 PM,64.2,37.4,37,29.97,10.0,SW,8.1,16.1,N/A,,Scattered Clouds,230,2013-10-18 19:15:00
3:35 PM,64.8,37.0,36,29.96,10.0,SSW,10.4,19.6,N/A,,Mostly Cloudy,210,2013-10-18 19:35:00
3:55 PM,64.4,36.5,36,29.95,10.0,SW,11.5,18.4,N/A,,Mostly Cloudy,230,2013-10-18 19:55:00
4:15 PM,64.4,36.1,35,29.95,10.0,SSW,13.8,-,N/A,,Mostly Cloudy,210,2013-10-18 20:15:00
4:35 PM,64.6,36.1,35,29.95,10.0,SW,11.5,-,N/A,,Mostly Cloudy,220,2013-10-18 20:35:00
4:55 PM,63.9,36.3,36,29.95,10.0,SW,8.1,16.1,N/A,,Mostly Cloudy,220,2013-10-18 20:55:00
5:15 PM,63.7,36.5,36,29.95,10.0,SSW,9.2,-,N/A,,Mostly Cloudy,210,2013-10-18 21:15:00
5:35 PM,63.9,36.0,36,29.95,10.0,SW,9.2,-,N/A,,Scattered Clouds,230,2013-10-18 21:35:00
5:55 PM,63.1,36.7,37,29.95,10.0,SSW,8.1,-,N/A,,Scattered Clouds,210,2013-10-18 21:55:00
6:15 PM,61.7,37.9,41,29.95,10.0,SSW,6.9,-,N/A,,Scattered Clouds,210,2013-10-18 22:15:00
6:35 PM,59.4,39.6,48,29.95,10.0,South,6.9,-,N/A,,Mostly Cloudy,190,2013-10-18 22:35:00
6:55 PM,57.9,39.6,50,29.95,10.0,South,6.9,-,N/A,,Scattered Clouds,190,2013-10-18 22:55:00
7:15 PM,56.3,39.4,53,29.95,10.0,South,6.9,-,N/A,,Clear,190,2013-10-18 23:15:00
7:35 PM,55.6,39.4,55,29.96,10.0,South,6.9,-,N/A,,Clear,190,2013-10-18 23:35:00
7:55 PM,54.5,39.7,57,29.96,10.0,South,5.8,-,N/A,,Clear,180,2013-10-18 23:55:00
8:15 PM,52.5,40.1,63,29.96,10.0,South,5.8,-,N/A,,Clear,170,2013-10-19 00:15:00
8:35 PM,51.1,40.1,66,29.97,10.0,South,8.1,-,N/A,,Clear,170,2013-10-19 00:35:00
8:55 PM,50.5,40.3,68,29.97,10.0,SSE,5.8,-,N/A,,Clear,160,2013-10-19 00:55:00
9:15 PM,49.8,40.5,70,29.97,10.0,South,6.9,-,N/A,,Clear,170,2013-10-19 01:15:00
9:35 PM,49.5,40.6,72,29.97,10.0,South,4.6,-,N/A,,Clear,190,2013-10-19 01:35:00
9:55 PM,50.4,40.5,69,29.97,10.0,South,4.6,-,N/A,,Clear,180,2013-10-19 01:55:00
10:15 PM,49.6,40.5,71,29.97,10.0,South,3.5,-,N/A,,Clear,170,2013-10-19 02:15:00
10:35 PM,49.6,40.6,71,29.97,10.0,South,3.5,-,N/A,,Clear,190,2013-10-19 02:35:00
10:55 PM,49.8,40.5,70,29.97,10.0,South,5.8,-,N/A,,Clear,190,2013-10-19 02:55:00
11:15 PM,49.5,40.6,72,29.96,10.0,South,3.5,-,N/A,,Clear,180,2013-10-19 03:15:00
11:35 PM,49.1,40.6,73,29.96,10.0,South,4.6,-,N/A,,Clear,180,2013-10-19 03:35:00
11:55 PM,48.7,40.6,74,29.95,10.0,South,3.5,-,N/A,,Clear,190,2013-10-19 03:55:00